Time;durP1;ratioP1;P1;durP2;ratioP2;P2;SDS_P1;SDS_P2;PMS_P1;PMS_P2;Temp;Humidity;BMP_temperature;BMP_pressure;BME280_temperature;BME280_humidity;BME280_pressure;Samples;Min_cycle;Max_cycle;Signal;HPM_P1;HPM_P2
2022/06/21 00:00:38;;;;;;;1999.90;999.90;;;;;;;21.00;100.00;95128.47;5038484;28;20255;-65
2022/06/21 00:03:08;;;;;;;1999.90;999.90;;;;;;;20.81;100.00;95121.50;5055021;28;20186;-65
2022/06/21 00:05:40;;;;;;;1999.90;999.90;;;;;;;20.74;100.00;95126.66;5038596;28;20279;-66
2022/06/21 00:08:11;;;;;;;1999.90;999.90;;;;;;;20.64;100.00;95117.63;5055366;28;20204;-65
2022/06/21 00:10:37;;;;;;;1999.90;999.90;;;;;;;20.71;100.00;95119.28;5055498;28;20202;-65
2022/06/21 00:13:07;;;;;;;1999.90;999.90;;;;;;;20.83;100.00;95132.91;5054845;28;20193;-64
2022/06/21 00:15:32;;;;;;;1999.90;999.90;;;;;;;20.83;100.00;95123.81;5055175;28;20186;-65
2022/06/21 00:17:57;;;;;;;1999.90;999.90;;;;;;;20.77;100.00;95120.94;5054814;28;20239;-58
2022/06/21 00:20:25;;;;;;;1999.90;999.90;;;;;;;20.77;100.00;95123.72;5054819;28;20198;-62
2022/06/21 00:22:50;;;;;;;1999.90;999.90;;;;;;;20.60;100.00;95122.59;5054342;28;20182;-64
2022/06/21 00:25:25;;;;;;;1999.90;999.90;;;;;;;19.99;100.00;95117.00;5054606;28;20193;-62
2022/06/21 00:27:53;;;;;;;1999.90;999.90;;;;;;;20.23;100.00;95107.47;5054529;28;20185;-63
2022/06/21 00:30:19;;;;;;;1999.90;999.90;;;;;;;20.26;100.00;95117.63;5054322;28;20309;-63
2022/06/21 00:32:47;;;;;;;1999.90;999.90;;;;;;;20.18;100.00;95108.09;5037965;28;20185;-62
2022/06/21 00:35:16;;;;;;;1999.90;999.90;;;;;;;20.14;100.00;95096.41;5054423;28;20220;-59
2022/06/21 00:37:43;;;;;;;1999.90;999.90;;;;;;;20.07;100.00;95107.84;5038233;28;20249;-64
2022/06/21 00:40:23;;;;;;;1999.90;999.90;;;;;;;19.80;100.00;95105.22;5054770;28;20229;-58
2022/06/21 00:43:09;;;;;;;1999.90;999.90;;;;;;;19.61;100.00;95106.56;5038091;28;20243;-58
2022/06/21 00:45:41;;;;;;;1999.90;999.90;;;;;;;19.72;100.00;95109.59;5038012;28;20197;-58
2022/06/21 00:48:16;;;;;;;1999.90;999.90;;;;;;;19.83;100.00;95114.59;5054322;28;20186;-58
2022/06/21 00:50:45;;;;;;;1999.90;999.90;;;;;;;19.84;100.00;95110.63;5037355;28;20203;-58
2022/06/21 00:53:34;;;;;;;1999.90;999.90;;;;;;;19.92;100.00;95122.88;5054108;28;20221;-62
2022/06/21 00:56:06;;;;;;;1999.90;999.90;;;;;;;19.71;100.00;95113.59;5054141;28;20197;-58
2022/06/21 00:58:31;;;;;;;1999.90;999.90;;;;;;;19.51;100.00;95110.59;5054476;28;20193;-65
2022/06/21 01:01:24;;;;;;;1999.90;999.90;;;;;;;18.94;100.00;95101.34;5054201;28;20185;-66
2022/06/21 01:04:01;;;;;;;1999.90;999.90;;;;;;;18.50;100.00;95104.94;5053864;28;20198;-66
2022/06/21 01:06:40;;;;;;;1999.90;999.90;;;;;;;18.24;100.00;95087.03;5054820;28;20216;-65
2022/06/21 01:09:11;;;;;;;1999.90;999.90;;;;;;;18.21;100.00;95088.00;5053717;28;20237;-65
2022/06/21 01:11:47;;;;;;;1999.90;999.90;;;;;;;18.40;100.00;95092.31;5054004;28;20197;-65
2022/06/21 01:14:17;;;;;;;1999.90;999.90;;;;;;;18.48;100.00;95107.38;5054451;28;20189;-63
2022/06/21 01:16:43;;;;;;;1999.90;999.90;;;;;;;17.94;100.00;95094.25;5055294;28;20265;-71
2022/06/21 01:19:17;;;;;;;1999.90;999.90;;;;;;;17.99;100.00;95110.22;5054054;28;20307;-71
2022/06/21 01:21:49;;;;;;;1999.90;999.90;;;;;;;18.08;100.00;95106.69;5054108;28;20273;-71
2022/06/21 01:24:28;;;;;;;1999.90;999.90;;;;;;;17.94;100.00;95118.34;5053533;28;20225;-72
2022/06/21 01:26:58;;;;;;;1999.90;999.90;;;;;;;17.66;100.00;95141.59;5053698;28;20219;-72
2022/06/21 01:29:27;;;;;;;1999.90;999.90;;;;;;;17.55;100.00;95146.75;5037364;28;20233;-72
2022/06/21 01:31:56;;;;;;;1999.90;999.90;;;;;;;17.81;100.00;95159.88;5053778;28;20200;-72
2022/06/21 01:34:23;;;;;;;1999.90;999.90;;;;;;;17.78;100.00;95171.09;5053731;28;20323;-62
2022/06/21 01:37:10;;;;;;;1999.90;999.90;;;;;;;17.57;100.00;95171.91;5054068;28;20235;-64
2022/06/21 01:39:53;;;;;;;1999.90;999.90;;;;;;;17.48;100.00;95178.16;5053482;28;20252;-62
2022/06/21 01:42:25;;;;;;;1999.90;999.90;;;;;;;17.18;100.00;95194.66;5054077;28;20255;-63
2022/06/21 01:44:54;;;;;;;1999.90;999.90;;;;;;;17.15;100.00;95184.56;5054188;28;20195;-64
2022/06/21 01:47:25;;;;;;;1999.90;999.90;;;;;;;17.39;100.00;95183.63;5053611;28;20182;-62
2022/06/21 01:49:58;;;;;;;1999.90;999.90;;;;;;;17.10;100.00;95188.66;5053395;28;20201;-58
2022/06/21 01:52:26;;;;;;;1999.90;999.90;;;;;;;17.38;100.00;95198.66;5053744;28;20268;-57
2022/06/21 01:55:16;;;;;;;1999.90;999.90;;;;;;;17.44;100.00;95196.84;5053309;28;20188;-58
2022/06/21 01:57:42;;;;;;;1999.90;999.90;;;;;;;17.40;100.00;95198.19;5037156;28;20217;-57
2022/06/21 02:00:08;;;;;;;1999.90;999.90;;;;;;;17.54;100.00;95178.34;5054003;28;20218;-58
2022/06/21 02:02:39;;;;;;;1999.90;999.90;;;;;;;17.50;100.00;95177.72;5053039;28;20182;-58
2022/06/21 02:05:13;;;;;;;1999.90;999.90;;;;;;;17.54;100.00;95178.34;5053336;28;20186;-58
2022/06/21 02:07:50;;;;;;;1999.90;999.90;;;;;;;17.74;100.00;95176.75;5053432;28;20289;-58
2022/06/21 02:10:27;;;;;;;1999.90;999.90;;;;;;;17.89;100.00;95176.97;5053305;28;20205;-62
2022/06/21 02:12:59;;;;;;;1999.90;999.90;;;;;;;18.02;100.00;95164.56;5052874;28;20186;-61
2022/06/21 02:15:34;;;;;;;1999.90;999.90;;;;;;;18.23;100.00;95168.47;5053361;28;20200;-61
2022/06/21 02:18:02;;;;;;;1999.90;999.90;;;;;;;18.12;100.00;95168.13;5053037;28;20192;-62
2022/06/21 02:20:38;;;;;;;1999.90;999.90;;;;;;;17.67;100.00;95165.22;5053332;28;20193;-61
2022/06/21 02:23:05;;;;;;;1999.90;999.90;;;;;;;17.51;100.00;95160.69;5036699;28;20364;-61
2022/06/21 02:25:32;;;;;;;1999.90;999.90;;;;;;;17.47;100.00;95162.03;5052757;28;20209;-72
2022/06/21 02:28:04;;;;;;;1999.90;999.90;;;;;;;17.16;100.00;95164.00;5052698;28;20193;-65
2022/06/21 02:30:31;;;;;;;1999.90;999.90;;;;;;;16.84;100.00;95164.41;5036493;28;20213;-65
2022/06/21 02:33:00;;;;;;;1999.90;999.90;;;;;;;16.92;100.00;95160.16;5052785;28;20198;-63
2022/06/21 02:35:32;;;;;;;1999.90;999.90;;;;;;;17.22;100.00;95145.66;5052689;28;20195;-63
2022/06/21 02:38:01;;;;;;;1999.90;999.90;;;;;;;17.23;100.00;95153.47;5052646;28;20185;-62
2022/06/21 02:40:31;;;;;;;1999.90;999.90;;;;;;;17.33;100.00;95157.06;5052958;28;20272;-63
2022/06/21 02:43:03;;;;;;;1999.90;999.90;;;;;;;17.13;100.00;95154.66;5036340;28;20204;-63
2022/06/21 02:46:00;;;;;;;1999.90;999.90;;;;;;;16.65;100.00;95151.69;5052482;28;20204;-59
2022/06/21 02:48:35;;;;;;;1999.90;999.90;;;;;;;16.63;100.00;95148.59;5048409;28;20225;-62
2022/06/21 02:51:05;;;;;;;1999.90;999.90;;;;;;;16.58;100.00;95152.72;5052732;28;20276;-62
2022/06/21 02:53:36;;;;;;;1999.90;999.90;;;;;;;16.77;100.00;95153.63;5056430;28;20215;-62
2022/06/21 02:56:08;;;;;;;1999.90;999.90;;;;;;;16.73;100.00;95136.44;5056379;28;20189;-62
2022/06/21 02:58:38;;;;;;;1999.90;999.90;;;;;;;16.51;100.00;95133.66;5039460;28;20178;-62
2022/06/21 03:01:10;;;;;;;1999.90;999.90;;;;;;;16.49;100.00;95138.09;5055989;28;20193;-62
2022/06/21 03:03:36;;;;;;;1999.90;999.90;;;;;;;16.69;100.00;95150.34;5039304;28;20185;-61
2022/06/21 03:06:07;;;;;;;1999.90;999.90;;;;;;;16.67;100.00;95161.06;5055501;28;20204;-68
2022/06/21 03:08:34;;;;;;;1999.90;999.90;;;;;;;16.51;100.00;95147.47;5056716;28;20208;-69
2022/06/21 03:11:00;;;;;;;1999.90;999.90;;;;;;;16.33;100.00;95150.03;5055922;28;20193;-69
2022/06/21 03:13:34;;;;;;;1999.90;999.90;;;;;;;16.35;100.00;95142.84;5055695;28;20227;-68
2022/06/21 03:16:04;;;;;;;1999.90;999.90;;;;;;;16.79;100.00;95146.44;5056233;28;20190;-68
2022/06/21 03:18:35;;;;;;;1999.90;999.90;;;;;;;16.96;100.00;95160.78;5056046;28;20192;-68
2022/06/21 03:21:03;;;;;;;1999.90;999.90;;;;;;;16.75;100.00;95153.31;5055570;28;20185;-57
2022/06/21 03:23:28;;;;;;;1999.90;999.90;;;;;;;16.69;100.00;95164.16;5055690;28;20185;-61
2022/06/21 03:26:03;;;;;;;1999.90;999.90;;;;;;;16.67;100.00;95154.78;5055660;28;20186;-62
2022/06/21 03:28:34;;;;;;;1999.90;999.90;;;;;;;16.74;100.00;95162.78;5055354;28;20185;-64
2022/06/21 03:31:12;;;;;;;1999.90;999.90;;;;;;;16.79;100.00;95153.94;5055453;28;20228;-63
2022/06/21 03:33:41;;;;;;;1999.90;999.90;;;;;;;16.82;100.00;95155.81;5039337;28;20185;-63
2022/06/21 03:36:11;;;;;;;1999.90;999.90;;;;;;;16.84;100.00;95154.16;5055650;28;20273;-62
2022/06/21 03:38:39;;;;;;;1999.90;999.90;;;;;;;16.96;100.00;95158.03;5055335;28;20292;-57
2022/06/21 03:43:57;;;;;;;1999.90;999.90;;;;;;;16.68;100.00;95161.84;5056310;28;20208;-57
2022/06/21 03:46:31;;;;;;;1999.90;999.90;;;;;;;16.43;100.00;95163.47;5055720;28;20185;-58
2022/06/21 03:49:05;;;;;;;1999.90;999.90;;;;;;;16.24;100.00;95156.22;5055414;28;20205;-58
2022/06/21 03:51:36;;;;;;;1999.90;999.90;;;;;;;16.26;100.00;95145.53;5055013;28;20193;-59
2022/06/21 03:54:18;;;;;;;1999.90;999.90;;;;;;;16.42;100.00;95149.38;5054979;28;20238;-58
2022/06/21 03:56:49;;;;;;;1999.90;999.90;;;;;;;16.46;100.00;95155.53;5055506;28;20193;-67
2022/06/21 03:59:30;;;;;;;1999.90;999.90;;;;;;;16.23;100.00;95142.88;5055607;28;20189;-57
2022/06/21 04:02:14;;;;;;;1999.90;999.90;;;;;;;16.56;100.00;95148.84;5055057;28;20198;-61
2022/06/21 04:05:00;;;;;;;1999.90;999.90;;;;;;;16.54;100.00;95137.50;5038218;28;20185;-61
2022/06/21 04:07:44;;;;;;;1999.90;999.90;;;;;;;16.25;100.00;95140.47;5039112;28;20193;-61
2022/06/21 04:10:33;;;;;;;1999.90;999.90;;;;;;;16.27;100.00;95147.06;5038338;28;20280;-60
2022/06/21 04:13:34;;;;;;;1999.90;999.90;;;;;;;16.64;100.00;95145.41;5038145;28;20313;-60
2022/06/21 04:16:17;;;;;;;1999.90;999.90;;;;;;;16.32;100.00;95145.75;5028012;28;20200;-57
2022/06/21 04:18:57;;;;;;;1999.90;999.90;;;;;;;16.18;100.00;95146.97;5054699;28;20197;-58
2022/06/21 04:21:46;;;;;;;1999.90;999.90;;;;;;;16.27;100.00;95152.56;5054961;28;20192;-57
2022/06/21 04:24:22;;;;;;;1999.90;999.90;;;;;;;16.09;100.00;95138.63;5055191;28;20251;-59
2022/06/21 04:27:28;;;;;;;1999.90;999.90;;;;;;;16.14;100.00;95129.78;5055147;28;20247;-58
2022/06/21 04:30:22;;;;;;;1999.90;999.90;;;;;;;16.13;100.00;95128.25;5035701;28;20220;-58
2022/06/21 04:32:54;;;;;;;1999.90;999.90;;;;;;;16.23;100.00;95124.38;5054768;28;20186;-57
2022/06/21 04:35:22;;;;;;;1999.90;999.90;;;;;;;16.25;100.00;95119.16;5055048;28;20206;-57
2022/06/21 04:37:54;;;;;;;1999.90;999.90;;;;;;;16.46;100.00;95127.97;5054319;28;20224;-58
2022/06/21 04:40:45;;;;;;;1999.90;999.90;;;;;;;16.38;100.00;95121.88;5054947;28;20182;-57
2022/06/21 04:43:19;;;;;;;1999.90;999.90;;;;;;;16.35;100.00;95123.56;5054740;28;20193;-59
2022/06/21 04:45:59;;;;;;;1999.90;999.90;;;;;;;16.13;100.00;95114.47;5038345;28;20185;-58
2022/06/21 04:48:24;;;;;;;1999.90;999.90;;;;;;;16.31;100.00;95113.84;5038237;28;20193;-57
2022/06/21 04:51:13;;;;;;;1999.90;999.90;;;;;;;16.12;100.00;95115.69;5037929;28;20189;-58
2022/06/21 04:53:43;;;;;;;1999.90;999.90;;;;;;;16.30;100.00;95115.09;5037504;28;20189;-69
2022/06/21 04:56:39;;;;;;;1999.90;999.90;;;;;;;16.29;100.00;95114.31;5054651;28;20170;-62
2022/06/21 04:59:12;;;;;;;1999.90;999.90;;;;;;;16.42;100.00;95117.81;5037753;28;20185;-63
2022/06/21 05:01:37;;;;;;;1999.90;999.90;;;;;;;16.34;100.00;95115.72;5054800;28;20178;-62
2022/06/21 05:04:10;;;;;;;1999.90;999.90;;;;;;;16.51;100.00;95119.88;5053879;28;20189;-63
2022/06/21 05:06:37;;;;;;;1999.90;999.90;;;;;;;16.27;100.00;95116.75;5053874;28;20178;-63
2022/06/21 05:09:03;;;;;;;1999.90;999.90;;;;;;;16.37;100.00;95121.13;5053851;28;20292;-62
2022/06/21 05:11:29;;;;;;;1999.90;999.90;;;;;;;16.39;100.00;95135.22;5053748;28;20212;-59
2022/06/21 05:13:58;;;;;;;1999.90;999.90;;;;;;;16.53;100.00;95141.50;5053705;28;20204;-61
2022/06/21 05:16:28;;;;;;;1999.90;999.90;;;;;;;16.58;100.00;95138.16;5052569;28;20190;-61
2022/06/21 05:18:56;;;;;;;1999.90;999.90;;;;;;;16.60;100.00;95133.72;5053930;28;20190;-61
2022/06/21 05:21:37;;;;;;;1999.90;999.90;;;;;;;16.32;100.00;95129.94;5036991;28;20206;-61
2022/06/21 05:24:03;;;;;;;1999.90;999.90;;;;;;;16.60;100.00;95127.47;5053778;28;20186;-61
2022/06/21 05:26:45;;;;;;;1999.90;999.90;;;;;;;16.72;100.00;95123.88;5053645;28;20186;-58
2022/06/21 05:29:38;;;;;;;1999.90;999.90;;;;;;;16.77;100.00;95137.06;5037542;28;20221;-66
2022/06/21 05:32:12;;;;;;;1999.90;999.90;;;;;;;16.57;100.00;95139.38;5047821;28;20205;-58
2022/06/21 05:34:43;;;;;;;1999.90;999.90;;;;;;;16.76;100.00;95130.03;5053932;28;20193;-59
2022/06/21 05:37:23;;;;;;;1999.90;999.90;;;;;;;16.71;100.00;95139.63;5054550;28;20185;-59
2022/06/21 05:39:52;;;;;;;1999.90;999.90;;;;;;;16.92;100.00;95140.84;5053182;28;20293;-59
2022/06/21 05:42:20;;;;;;;1999.90;999.90;;;;;;;16.38;100.00;95139.19;5053220;28;20185;-59
2022/06/21 05:44:49;;;;;;;1999.90;999.90;;;;;;;16.60;100.00;95142.00;5054498;28;20188;-59
2022/06/21 05:47:15;;;;;;;1999.90;999.90;;;;;;;16.25;100.00;95140.47;5053334;28;20190;-64
2022/06/21 05:49:41;;;;;;;1999.90;999.90;;;;;;;16.50;100.00;95131.34;5036470;28;20202;-58
2022/06/21 05:52:14;;;;;;;1999.90;999.90;;;;;;;17.01;100.00;95146.44;5054024;28;20281;-64
2022/06/21 05:54:46;;;;;;;1999.90;999.90;;;;;;;16.77;100.00;95137.84;5053237;28;20233;-65
2022/06/21 05:57:17;;;;;;;1999.90;999.90;;;;;;;16.85;100.00;95125.34;5053155;28;20190;-64
2022/06/21 05:59:43;;;;;;;1999.90;999.90;;;;;;;17.09;100.00;95125.63;5053449;28;20196;-66
2022/06/21 06:02:25;;;;;;;1999.90;999.90;;;;;;;16.78;100.00;95141.38;5036252;28;20280;-64
2022/06/21 06:04:58;;;;;;;1999.90;999.90;;;;;;;16.66;100.00;95137.47;5036437;28;20185;-64
2022/06/21 06:07:41;;;;;;;1999.90;999.90;;;;;;;16.77;100.00;95132.34;5053463;28;20232;-58
2022/06/21 06:10:08;;;;;;;1999.90;999.90;;;;;;;17.27;100.00;95132.03;5052618;28;20312;-59
2022/06/21 06:12:38;;;;;;;1999.90;999.90;;;;;;;17.34;100.00;95131.75;5053290;28;20246;-59
2022/06/21 06:15:16;;;;;;;1999.90;999.90;;;;;;;17.17;100.00;95132.41;5053610;28;20225;-59
2022/06/21 06:17:51;;;;;;;1999.90;999.90;;;;;;;17.21;100.00;95122.00;5052660;28;20189;-58
2022/06/21 06:20:22;;;;;;;1999.90;999.90;;;;;;;17.05;100.00;95133.28;5036142;28;20200;-58
2022/06/21 06:23:10;;;;;;;1999.90;999.90;;;;;;;17.02;100.00;95129.44;5036011;28;20186;-58
2022/06/21 06:25:43;;;;;;;1999.90;999.90;;;;;;;17.32;100.00;95122.38;5052722;28;20193;-72
2022/06/21 06:28:51;;;;;;;1999.90;999.90;;;;;;;17.31;100.00;95127.16;5052378;28;20186;-66
2022/06/21 06:31:22;;;;;;;1999.90;999.90;;;;;;;17.48;100.00;95141.53;5035423;28;20201;-66
2022/06/21 06:34:18;;;;;;;1999.90;999.90;;;;;;;17.69;100.00;95141.44;5052613;28;20185;-66
2022/06/21 06:36:48;;;;;;;1999.90;999.90;;;;;;;17.47;100.00;95139.97;5036237;28;20217;-65
2022/06/21 06:39:23;;;;;;;1999.90;999.90;;;;;;;17.52;100.00;95133.88;5053241;28;20392;-66
2022/06/21 06:42:03;;;;;;;1999.90;999.90;;;;;;;17.72;100.00;95137.00;5052829;28;20185;-67
2022/06/21 06:44:36;;;;;;;1999.90;999.90;;;;;;;17.85;100.00;95140.44;5052238;28;20190;-59
2022/06/21 06:47:02;;;;;;;1999.90;999.90;;;;;;;18.35;100.00;95142.69;5052606;28;20189;-61
2022/06/21 06:49:37;;;;;;;1999.90;999.90;;;;;;;18.49;100.00;95142.09;5053350;28;20205;-61
2022/06/21 06:52:23;;;;;;;1999.90;999.90;;;;;;;18.21;100.00;95149.56;5052770;28;20185;-61
2022/06/21 06:54:59;;;;;;;1999.90;999.90;;;;;;;18.51;100.00;95150.72;5052513;28;20189;-61
2022/06/21 06:57:33;;;;;;;1999.90;999.90;;;;;;;18.54;100.00;95144.25;5053323;28;20189;-61
2022/06/21 07:00:00;;;;;;;1999.90;999.90;;;;;;;18.49;100.00;95142.09;5052693;28;20217;-61
2022/06/21 07:02:36;;;;;;;1999.90;999.90;;;;;;;18.74;100.00;95136.25;5052316;28;20200;-66
2022/06/21 07:05:11;;;;;;;1999.90;999.90;;;;;;;18.44;100.00;95148.25;5052755;28;20272;-66
2022/06/21 07:07:43;;;;;;;1999.90;999.90;;;;;;;18.59;100.00;95140.88;5052683;28;20189;-67
2022/06/21 07:10:17;;;;;;;1999.90;999.90;;;;;;;18.71;100.00;95148.25;5052231;28;20205;-66
2022/06/21 07:12:42;;;;;;;1999.90;999.90;;;;;;;18.98;100.00;95159.31;5052103;28;20193;-66
2022/06/21 07:15:10;;;;;;;1999.90;999.90;;;;;;;19.44;100.00;95167.09;5052141;28;20277;-66
2022/06/21 07:17:53;;;;;;;1999.90;999.90;;;;;;;19.14;100.00;95158.97;5052133;28;20189;-66
2022/06/21 07:20:23;;;;;;;1999.90;999.90;;;;;;;18.89;100.00;95157.31;5052856;28;20257;-70
2022/06/21 07:22:52;;;;;;;1999.90;999.90;;;;;;;18.67;100.00;95159.47;5052683;28;20193;-66
2022/06/21 07:25:33;;;;;;;1999.90;999.90;;;;;;;18.70;100.00;95158.56;5051989;28;20201;-63
2022/06/21 07:28:07;;;;;;;1999.90;999.90;;;;;;;19.44;100.00;95171.84;5035306;28;20197;-65
2022/06/21 07:30:39;;;;;;;1999.90;999.90;;;;;;;18.87;100.00;95167.31;5051553;28;20209;-65
2022/06/21 07:33:12;;;;;;;1999.90;999.90;;;;;;;18.86;100.00;95165.75;5051916;28;20182;-65
2022/06/21 07:35:44;;;;;;;1999.90;999.90;;;;;;;19.45;100.00;95168.63;5052448;28;20301;-65
2022/06/21 07:38:34;;;;;;;1999.90;999.90;;;;;;;19.83;100.00;95170.03;5052530;28;20213;-57
2022/06/21 07:41:23;;;;;;;1999.90;999.90;;;;;;;19.41;100.00;95170.03;5055622;28;20208;-66
2022/06/21 07:43:52;;;;;;;1999.90;999.90;;;;;;;20.33;100.00;95161.66;5036811;28;20240;-66
2022/06/21 07:46:27;;;;;;;1999.90;999.90;;;;;;;19.91;100.00;95155.38;5055389;28;20280;-65
2022/06/21 07:49:05;;;;;;;1999.90;999.90;;;;;;;20.01;100.00;95156.88;5055236;28;20208;-65
2022/06/21 07:51:40;;;;;;;1999.90;999.90;;;;;;;20.86;97.50;95165.28;5054857;28;20192;-65
2022/06/21 07:54:36;;;;;;;1999.90;999.90;;;;;;;20.51;95.50;95164.31;5039195;28;20241;-65
2022/06/21 07:57:14;;;;;;;1999.90;999.90;;;;;;;20.58;96.10;95163.94;5038777;28;20239;-58
2022/06/21 07:59:45;;;;;;;1999.90;999.90;;;;;;;20.68;95.89;95167.44;5055339;28;20190;-59
2022/06/21 08:08:43;;;;;;;1999.90;999.90;;;;;;;21.16;93.64;95158.53;5056556;28;20197;-59
2022/06/21 08:11:15;;;;;;;1999.90;999.90;;;;;;;20.81;95.33;95163.16;5054860;28;20177;-59
2022/06/21 08:13:41;;;;;;;1999.90;999.90;;;;;;;20.78;94.48;95172.44;5055378;28;20216;-66
2022/06/21 08:16:14;;;;;;;1999.90;999.90;;;;;;;20.78;92.53;95166.88;5054576;28;20209;-64
2022/06/21 08:18:44;;;;;;;1999.90;999.90;;;;;;;20.66;91.20;95178.22;5054612;28;20182;-64
2022/06/21 08:21:17;;;;;;;1999.90;999.90;;;;;;;21.29;86.94;95186.84;5038054;28;20208;-64
2022/06/21 08:23:46;;;;;;;1999.90;999.90;;;;;;;21.77;83.17;95187.44;5055419;28;20217;-65
2022/06/21 08:26:24;;;;;;;1999.90;999.90;;;;;;;21.82;81.64;95198.66;5054505;28;20194;-65
2022/06/21 08:29:03;;;;;;;1999.90;999.90;;;;;;;21.38;82.48;95200.63;5054951;28;20174;-64
2022/06/21 08:31:33;;;;;;;1999.90;999.90;;;;;;;21.45;79.79;95202.28;5054628;28;20211;-65
2022/06/21 08:34:29;;;;;;;1999.90;999.90;;;;;;;21.38;80.52;95202.66;5037938;28;20276;-60
2022/06/21 08:37:00;;;;;;;1999.90;999.90;;;;;;;22.31;75.55;95201.44;5038486;28;20193;-60
2022/06/21 08:39:36;;;;;;;1999.90;999.90;;;;;;;22.62;72.31;95214.06;5054311;28;20292;-59
2022/06/21 08:42:22;;;;;;;1999.90;999.90;;;;;;;23.28;67.17;95212.13;5054510;28;20185;-60
2022/06/21 08:48:37;;;;;;;1999.90;999.90;;;;;;;23.29;65.44;95213.66;5055602;28;20212;-60
2022/06/21 08:51:24;;;;;;;1999.90;999.90;;;;;;;24.38;61.90;95204.75;5037461;28;20204;-66
2022/06/21 08:54:12;;;;;;;1999.90;999.90;;;;;;;24.03;62.15;95196.66;5037922;28;20181;-59
2022/06/21 08:56:59;;;;;;;1999.90;999.90;;;;;;;24.65;60.74;95206.97;5054730;28;20190;-59
2022/06/21 08:59:33;;;;;;;1999.90;999.90;;;;;;;22.79;67.43;95209.47;5054207;28;20267;-59
2022/06/21 09:02:40;;;;;;;1999.90;999.90;;;;;;;24.11;62.06;95214.47;5037732;28;20327;-59
2022/06/21 09:05:35;;;;;;;1999.90;999.90;;;;;;;25.31;60.58;95207.31;5018656;28;20206;-60
2022/06/21 09:08:28;;;;;;;1999.90;999.90;;;;;;;25.72;58.63;95200.06;5037282;28;20197;-59
2022/06/21 09:10:59;;;;;;;1999.90;999.90;;;;;;;25.57;59.46;95202.31;5037312;28;20209;-64
2022/06/21 09:13:50;;;;;;;1999.90;999.90;;;;;;;25.57;57.89;95202.31;5037251;28;20182;-58
2022/06/21 09:16:29;;;;;;;1999.90;999.90;;;;;;;24.06;66.56;95206.81;5037268;28;20188;-58
2022/06/21 09:19:08;;;;;;;1999.90;999.90;;;;;;;24.00;64.45;95208.03;5054398;28;20169;-58
2022/06/21 09:22:12;;;;;;;1999.90;999.90;;;;;;;25.15;62.00;95210.78;5037197;28;20209;-58
2022/06/21 09:24:41;;;;;;;1999.90;999.90;;;;;;;24.91;63.69;95207.66;5030220;28;20201;-58
2022/06/21 09:27:31;;;;;;;1999.90;999.90;;;;;;;24.71;65.17;95199.41;5054609;28;20192;-58
2022/06/21 09:30:06;;;;;;;1999.90;999.90;;;;;;;26.03;59.97;95211.03;5053590;28;20264;-63
2022/06/21 09:32:56;;;;;;;1999.90;999.90;;;;;;;26.60;58.26;95200.09;5037254;28;20189;-64
2022/06/21 09:35:29;;;;;;;1999.90;999.90;;;;;;;25.83;60.62;95197.25;5037222;28;20197;-64
2022/06/21 09:38:21;;;;;;;1999.90;999.90;;;;;;;25.81;61.83;95193.44;5053927;28;20223;-64
2022/06/21 09:40:56;;;;;;;1999.90;999.90;;;;;;;25.58;63.48;95187.06;5037352;28;20197;-64
2022/06/21 09:43:46;;;;;;;1999.90;999.90;;;;;;;24.49;67.95;95190.88;5052522;28;20182;-64
2022/06/21 09:46:28;;;;;;;1999.90;999.90;;;;;;;23.91;71.28;95183.06;5037263;28;20225;-60
2022/06/21 09:49:03;;;;;;;1999.90;999.90;;;;;;;23.99;72.00;95178.59;5053478;28;20189;-63
2022/06/21 09:51:34;;;;;;;1999.90;999.90;;;;;;;23.68;74.86;95178.56;5036944;28;20185;-64
2022/06/21 09:54:08;;;;;;;1999.90;999.90;;;;;;;24.33;73.35;95186.72;5037129;28;20205;-65
2022/06/21 09:56:46;;;;;;;1999.90;999.90;;;;;;;23.95;76.63;95178.06;5053570;28;20178;-64
2022/06/21 09:59:21;;;;;;;1999.90;999.90;;;;;;;23.77;76.13;95178.38;5053575;28;20249;-64
2022/06/21 10:02:15;;;;;;;1999.90;999.90;;;;;;;23.43;76.86;95182.91;5035944;28;20193;-64
2022/06/21 10:04:52;;;;;;;1999.90;999.90;;;;;;;23.45;76.47;95185.19;5053611;28;20252;-69
2022/06/21 10:07:48;;;;;;;1999.90;999.90;;;;;;;22.95;81.08;95181.06;5053552;28;20182;-62
2022/06/21 10:10:48;;;;;;;1999.90;999.90;;;;;;;22.70;84.14;95181.75;5034845;28;20218;-62
2022/06/21 10:14:14;;;;;;;1999.90;999.90;;;;;;;22.49;86.16;95158.69;5053358;28;20190;-62
2022/06/21 10:16:58;;;;;;;1999.90;999.90;;;;;;;23.45;83.83;95168.47;4988611;28;20291;-62
2022/06/21 10:19:36;;;;;;;1999.90;999.90;;;;;;;24.18;79.47;95171.41;5036388;28;20192;-62
2022/06/21 10:22:55;;;;;;;1999.90;999.90;;;;;;;26.36;69.86;95177.41;5036894;28;20188;-63
2022/06/21 10:25:26;;;;;;;1999.90;999.90;;;;;;;25.35;73.09;95163.09;4954731;29;20205;-60
2022/06/21 10:28:24;;;;;;;1999.90;999.90;;;;;;;25.48;71.43;95157.78;5036553;28;20204;-56
2022/06/21 10:31:01;;;;;;;1999.90;999.90;;;;;;;25.05;73.06;95156.34;5052990;28;20263;-56
2022/06/21 10:33:55;;;;;;;1999.90;999.90;;;;;;;24.91;76.72;95162.94;5035890;28;20189;-56
2022/06/21 10:36:39;;;;;;;1999.90;999.90;;;;;;;25.25;76.21;95153.38;5036032;28;20182;-57
2022/06/21 10:39:16;;;;;;;1999.90;999.90;;;;;;;25.78;74.13;95158.81;5035840;28;20213;-56
2022/06/21 10:45:11;;;;;;;1999.90;999.90;;;;;;;27.70;65.80;95165.97;5053708;28;20201;-70
2022/06/21 10:47:52;;;;;;;1999.90;999.90;;;;;;;27.50;67.33;95154.38;5052529;28;20280;-70
2022/06/21 10:50:42;;;;;;;1999.90;999.90;;;;;;;25.86;70.95;95157.06;5036272;28;20244;-70
2022/06/21 10:53:28;;;;;;;1999.90;999.90;;;;;;;26.82;68.59;95146.00;5036205;28;20190;-70
2022/06/21 10:59:00;;;;;;;1999.90;999.90;;;;;;;27.99;64.82;95150.44;5054111;28;20188;-70
2022/06/21 11:01:37;;;;;;;1999.90;999.90;;;;;;;27.44;66.44;95140.38;5035843;28;20200;-59
2022/06/21 11:04:09;;;;;;;1999.90;999.90;;;;;;;25.78;73.33;95144.81;5052494;28;20185;-66
2022/06/21 11:06:47;;;;;;;1999.90;999.90;;;;;;;27.80;67.00;95133.47;5052772;28;20190;-66
2022/06/21 11:09:24;;;;;;;1999.90;999.90;;;;;;;27.51;69.50;95128.59;5053060;28;20216;-66
2022/06/21 11:15:10;;;;;;;1999.90;999.90;;;;;;;28.51;64.52;95124.97;5056506;28;20204;-66
2022/06/21 11:17:42;;;;;;;1999.90;999.90;;;;;;;29.13;62.92;95121.69;5056171;28;20194;-64
2022/06/21 11:20:12;;;;;;;1999.90;999.90;;;;;;;29.58;59.94;95121.81;5039326;28;20193;-69
2022/06/21 11:23:06;;;;;;;1999.90;999.90;;;;;;;30.31;59.12;95115.31;5039118;28;20209;-60
2022/06/21 11:25:49;;;;;;;1999.90;999.90;;;;;;;29.28;61.10;95109.97;5038788;28;20192;-60
2022/06/21 11:28:33;;;;;;;1999.90;999.90;;;;;;;29.01;63.13;95102.63;5055956;28;20198;-60
2022/06/21 11:31:34;;;;;;;1999.90;999.90;;;;;;;28.24;64.75;95101.44;5038851;28;20213;-60
2022/06/21 11:34:11;;;;;;;1999.90;999.90;;;;;;;28.71;63.47;95101.97;5052587;28;20200;-62
2022/06/21 11:36:48;;;;;;;1999.90;999.90;;;;;;;28.53;66.35;95102.69;5055271;28;20193;-62
2022/06/21 11:39:19;;;;;;;1999.90;999.90;;;;;;;29.22;64.01;95089.59;5055774;28;20201;-64
2022/06/21 11:42:04;;;;;;;1999.90;999.90;;;;;;;28.80;64.74;95093.94;5039030;28;20280;-64
2022/06/21 11:44:48;;;;;;;1999.90;999.90;;;;;;;28.34;66.00;95091.38;5055754;28;20181;-64
2022/06/21 11:47:26;;;;;;;1999.90;999.90;;;;;;;28.07;67.22;95090.38;5038786;28;20186;-64
2022/06/21 11:50:14;;;;;;;1999.90;999.90;;;;;;;28.05;68.17;95098.56;5054985;28;20296;-64
2022/06/21 11:52:58;;;;;;;1999.90;999.90;;;;;;;27.81;69.48;95100.53;5039089;28;20185;-64